Briefing drone pour Nevers (LFQG)

Rechercher une autre localisation

Conditions de vol :


Nous sommes le : Lundi 05 décembre 2022
Il est 08:43 UTC (09:43 LT)

Lever de soleil : 06:50 UTC (07:50 LT)
Coucher de soleil : 16:24 UTC (17:24 LT)

Météo

L'essentiel des conditions de vol

VIGILANCE MÉTÉO FRANCE - Nièvre (58)
Pas de vigilances particulieres
CARTES DES FRONTS
METAR de LFQG
LFQG 050830Z AUTO 00000KT 9999 SCT014 SCT026 OVC033 04/03 Q1020

Date d'émission: 05/12/2022
Heure d'émission: 08:30 UTC
Vent: Calme
Visibilité horizontale: > 10 km
Plafond :
- Nuages épars à 1400ft (427m)
- Nuages épars à 2600ft (792m)
- Couvert à 3300ft (1006m)
Température: 4 °C
Point de rosée: 3 °C
Humidité: 93%
Pression (QNH): 1020 hPa
Prévision 24h pour Nevers
Vent : 72° pour 1 KT (4 km/h)
Temperature Maxi: 0 °C
Temperature Min: 0 °C
Humidité : 95%
Condition : Peu nuageux



Warning: count(): Parameter must be an array or an object that implements Countable in /homepages/6/d509196549/htdocs/droneoxygene/briefing.php on line 743
WEBCAM POUR NEVERS

Réglementation

Voler en sécurité

CARTES AERONAUTIQUE 1/500.000
CARTE AZBA (Reseau basse altitude)
CARTES VAC (LFQG)
SUP AIP




Chargement des AIP...
NOTAM (NEVERS + Terrain à proximité / FIR )




Chargement des NOTAMS...
CONTACT PREFECTURE 58


Avertissement : Les données mises à disposition sont indicatives. Oxygène Drone ne pourra être tenu responsable de dégâts causés aux biens et aux personnes.